createdAt,value
2022-08-24T00:02:12.309Z,9.50
2022-08-24T00:04:58.129Z,8.88
2022-08-24T00:07:43.794Z,10.52
2022-08-24T00:10:29.266Z,8.52
2022-08-24T00:13:15.631Z,9.27
2022-08-24T00:16:01.450Z,8.55
2022-08-24T00:18:48.189Z,8.30
2022-08-24T00:21:33.642Z,8.70
2022-08-24T00:24:19.767Z,9.25
2022-08-24T00:27:07.511Z,6.55
2022-08-24T00:29:53.283Z,9.65
2022-08-24T00:32:38.366Z,10.50
2022-08-24T00:35:24.568Z,8.63
2022-08-24T00:38:10.243Z,8.30
2022-08-24T00:40:55.449Z,8.13
2022-08-24T00:43:55.822Z,10.00
2022-08-24T00:46:49.622Z,7.07
2022-08-24T00:50:07.133Z,5.30
2022-08-24T00:53:06.294Z,5.07
2022-08-24T00:55:57.387Z,5.13
2022-08-24T00:58:47.682Z,4.35
2022-08-24T01:01:44.264Z,4.07
2022-08-24T01:04:40.179Z,6.50
2022-08-24T01:07:27.481Z,5.35
2022-08-24T01:10:17.414Z,5.90
2022-08-24T01:13:07.149Z,5.13
2022-08-24T01:15:57.949Z,4.97
2022-08-24T01:18:49.768Z,6.13
2022-08-24T01:21:44.850Z,5.68
2022-08-24T01:24:30.106Z,3.55
2022-08-24T01:27:16.770Z,3.60
2022-08-24T01:30:08.950Z,8.45
2022-08-24T01:33:01.929Z,6.03
2022-08-24T01:35:47.654Z,4.53
2022-08-24T01:38:34.309Z,4.18
2022-08-24T01:41:19.583Z,5.75
2022-08-24T01:44:05.818Z,3.92
2022-08-24T01:46:53.998Z,8.93
2022-08-24T01:49:42.906Z,4.00
2022-08-24T01:52:43.374Z,3.53
2022-08-24T01:55:34.534Z,2.90
2022-08-24T01:58:19.994Z,4.35
2022-08-24T02:01:05.902Z,3.42
2022-08-24T02:03:52.112Z,4.30
2022-08-24T02:06:39.023Z,4.10
2022-08-24T02:09:25.709Z,6.47
2022-08-24T02:12:18.122Z,3.38
2022-08-24T02:15:06.209Z,4.03
2022-08-24T02:17:51.450Z,5.47
2022-08-24T02:20:37.790Z,7.00
2022-08-24T02:23:23.425Z,6.03
2022-08-24T02:26:10.564Z,4.22
2022-08-24T02:28:56.182Z,6.38
2022-08-24T02:31:45.024Z,4.82
2022-08-24T02:34:30.299Z,8.13
2022-08-24T02:37:15.826Z,6.47
2022-08-24T02:40:01.946Z,5.55
2022-08-24T02:42:48.136Z,5.43
2022-08-24T02:45:38.636Z,7.25
2022-08-24T02:48:23.758Z,5.97
2022-08-24T02:51:17.834Z,9.77
2022-08-24T02:54:05.590Z,17.00
2022-08-24T02:56:52.709Z,5.40
2022-08-24T02:59:37.896Z,5.97
2022-08-24T03:02:23.382Z,6.85
2022-08-24T03:05:10.234Z,8.32
2022-08-24T03:07:56.493Z,8.80
2022-08-24T03:10:41.887Z,5.15
2022-08-24T03:13:28.649Z,5.13
2022-08-24T03:16:14.014Z,8.00
2022-08-24T03:18:59.779Z,5.43
2022-08-24T03:21:45.020Z,7.45
2022-08-24T03:24:30.586Z,6.80
2022-08-24T03:27:16.123Z,9.13
2022-08-24T03:30:01.983Z,8.52
2022-08-24T03:32:47.160Z,8.25
2022-08-24T03:35:32.827Z,5.25
2022-08-24T03:38:18.355Z,6.60
2022-08-24T03:41:03.977Z,6.47
2022-08-24T03:43:50.018Z,9.15
2022-08-24T03:46:37.831Z,8.55
2022-08-24T03:49:23.753Z,8.00
2022-08-24T03:52:08.988Z,10.40
2022-08-24T03:54:54.535Z,9.20
2022-08-24T03:57:40.274Z,8.13
2022-08-24T04:00:25.420Z,11.18
2022-08-24T04:03:12.255Z,9.68
2022-08-24T04:05:58.421Z,9.32
2022-08-24T04:08:46.534Z,12.48
2022-08-24T04:11:35.851Z,9.45
2022-08-24T04:14:27.403Z,10.25
2022-08-24T04:17:13.345Z,8.27
2022-08-24T04:19:59.013Z,8.27
2022-08-24T04:22:44.745Z,11.60
2022-08-24T04:25:32.391Z,10.48
2022-08-24T04:28:20.168Z,11.75
2022-08-24T04:31:06.948Z,8.40
2022-08-24T04:33:53.996Z,11.10
2022-08-24T04:36:41.323Z,9.30
2022-08-24T04:39:26.867Z,8.20
2022-08-24T04:42:12.395Z,7.55
2022-08-24T04:44:58.033Z,8.43
2022-08-24T04:47:45.109Z,9.98
2022-08-24T04:50:30.339Z,8.77
2022-08-24T04:53:16.713Z,10.63
2022-08-24T04:56:03.062Z,7.85
2022-08-24T04:58:48.584Z,9.30
2022-08-24T05:01:34.242Z,7.75
2022-08-24T05:04:20.091Z,10.98
2022-08-24T05:07:06.349Z,7.55
2022-08-24T05:09:52.339Z,8.80
2022-08-24T05:12:38.384Z,7.72
2022-08-24T05:15:23.758Z,7.35
2022-08-24T05:18:09.244Z,7.95
2022-08-24T05:20:54.762Z,8.05
2022-08-24T05:23:42.831Z,6.75
2022-08-24T05:26:31.081Z,9.88
2022-08-24T05:29:16.599Z,8.02
2022-08-24T05:32:02.381Z,8.00
2022-08-24T05:34:50.244Z,7.43
2022-08-24T05:37:40.008Z,8.98
2022-08-24T05:40:25.822Z,7.93
2022-08-24T05:43:18.693Z,10.27
2022-08-24T05:46:04.405Z,8.52
2022-08-24T05:48:52.813Z,10.65
2022-08-24T05:51:40.178Z,7.68
2022-08-24T05:54:26.927Z,9.18
2022-08-24T05:57:12.790Z,8.27
2022-08-24T05:59:58.427Z,10.32
2022-08-24T06:02:44.475Z,8.43
2022-08-24T06:05:30.411Z,6.95
2022-08-24T06:08:15.815Z,9.48
2022-08-24T06:11:02.621Z,9.75
2022-08-24T06:13:48.871Z,9.35
2022-08-24T06:16:46.235Z,8.93
2022-08-24T06:19:32.911Z,6.97
2022-08-24T06:22:18.092Z,9.40
2022-08-24T06:25:22.800Z,6.10
2022-08-24T06:28:08.352Z,7.20
2022-08-24T06:31:03.236Z,7.28
2022-08-24T06:33:48.801Z,11.95
2022-08-24T06:36:34.396Z,8.07
2022-08-24T06:39:19.701Z,4.72
2022-08-24T06:42:06.353Z,6.57
2022-08-24T06:44:52.916Z,10.30
2022-08-24T06:47:38.372Z,8.75
2022-08-24T06:50:24.776Z,6.32
2022-08-24T06:53:14.730Z,6.70
2022-08-24T06:55:59.867Z,7.10
2022-08-24T06:58:45.614Z,6.15
2022-08-24T07:01:31.163Z,4.13
2022-08-24T07:04:16.636Z,3.60
2022-08-24T07:07:02.114Z,6.97
2022-08-24T07:09:47.497Z,7.50
2022-08-24T07:12:33.354Z,6.63
2022-08-24T07:15:19.390Z,8.75
2022-08-24T07:18:10.008Z,6.90
2022-08-24T07:20:55.967Z,5.43
2022-08-24T07:23:42.853Z,4.43
2022-08-24T07:26:30.204Z,5.93
2022-08-24T07:29:43.722Z,4.00
2022-08-24T07:32:21.093Z,5.95
2022-08-24T07:35:07.700Z,5.70
2022-08-24T07:37:53.835Z,8.52
2022-08-24T07:41:05.128Z,6.10
2022-08-24T07:43:46.846Z,5.05
2022-08-24T07:46:32.812Z,4.90
2022-08-24T07:49:33.226Z,7.88
2022-08-24T07:52:22.369Z,4.97
2022-08-24T07:55:08.717Z,3.67
2022-08-24T07:57:54.036Z,5.28
2022-08-24T08:00:39.155Z,3.90
2022-08-24T08:03:29.282Z,4.60
2022-08-24T08:06:16.237Z,5.47
2022-08-24T08:09:02.977Z,3.05
2022-08-24T08:11:49.329Z,5.20
2022-08-24T08:14:35.759Z,5.50
2022-08-24T08:17:21.381Z,3.33
2022-08-24T08:20:08.981Z,4.65
2022-08-24T08:23:12.771Z,7.75
2022-08-24T08:25:59.422Z,7.57
2022-08-24T08:28:45.032Z,5.43
2022-08-24T08:31:30.493Z,6.65
2022-08-24T08:34:20.402Z,4.80
2022-08-24T08:37:06.693Z,4.55
2022-08-24T08:39:52.163Z,3.55
2022-08-24T08:42:59.213Z,7.70
2022-08-24T08:46:07.826Z,5.32
2022-08-24T08:49:22.688Z,3.55
2022-08-24T08:52:42.528Z,2.92
2022-08-24T08:55:33.271Z,3.78
2022-08-24T08:58:44.053Z,10.60
2022-08-24T09:01:57.228Z,2.85
2022-08-24T09:05:02.521Z,2.75
2022-08-24T09:08:01.011Z,2.55
2022-08-24T09:11:09.694Z,2.90
2022-08-24T09:14:22.676Z,5.18
2022-08-24T09:17:23.564Z,2.40
2022-08-24T09:20:27.565Z,4.22
2022-08-24T09:23:30.483Z,2.58
2022-08-24T09:26:33.320Z,4.10
2022-08-24T09:29:37.627Z,4.47
2022-08-24T09:32:35.532Z,3.85
2022-08-24T09:38:58.889Z,4.15
2022-08-24T09:42:14.923Z,2.45
2022-08-24T09:45:26.564Z,4.32
2022-08-24T09:48:53.389Z,2.33
2022-08-24T09:51:51.127Z,2.72
2022-08-24T09:55:04.899Z,3.22
2022-08-24T09:58:20.848Z,1.60
2022-08-24T10:01:09.177Z,3.90
2022-08-24T10:04:11.424Z,2.42
2022-08-24T10:07:23.759Z,3.80
2022-08-24T10:10:37.511Z,2.40
2022-08-24T10:13:51.899Z,4.22
2022-08-24T10:16:44.649Z,1.83
2022-08-24T10:19:54.089Z,1.85
2022-08-24T10:22:49.318Z,2.95
2022-08-24T10:25:52.707Z,3.55
2022-08-24T10:28:59.943Z,3.35
2022-08-24T10:32:03.991Z,5.70
2022-08-24T10:35:08.134Z,5.82
2022-08-24T10:38:38.260Z,2.78
2022-08-24T10:41:44.577Z,6.90
2022-08-24T10:44:48.686Z,3.67
2022-08-24T10:47:36.787Z,1.85
2022-08-24T10:50:38.601Z,2.25
2022-08-24T10:53:30.232Z,1.98
2022-08-24T10:56:19.087Z,3.30
2022-08-24T10:59:16.622Z,3.30
2022-08-24T11:02:02.301Z,1.63
2022-08-24T11:05:06.216Z,3.30
2022-08-24T11:08:05.697Z,6.45
2022-08-24T11:11:08.891Z,2.25
2022-08-24T11:14:00.809Z,3.58
2022-08-24T11:16:47.518Z,3.17
2022-08-24T11:19:35.193Z,2.22
2022-08-24T11:22:30.370Z,1.75
2022-08-24T11:25:23.211Z,2.70
2022-08-24T11:28:23.453Z,2.17
2022-08-24T11:31:19.571Z,3.80
2022-08-24T11:34:09.346Z,2.78
2022-08-24T11:36:54.950Z,2.78
2022-08-24T11:39:40.489Z,3.85
2022-08-24T11:42:29.220Z,3.88
2022-08-24T11:45:34.284Z,2.63
2022-08-24T11:48:54.177Z,3.05
2022-08-24T11:51:54.848Z,1.73
2022-08-24T11:54:52.738Z,3.05
2022-08-24T11:57:48.070Z,2.80
2022-08-24T12:00:43.198Z,2.00
2022-08-24T12:03:34.639Z,3.35
2022-08-24T12:06:43.033Z,2.95
2022-08-24T12:09:57.812Z,2.58
2022-08-24T12:12:54.463Z,2.90
2022-08-24T12:15:44.721Z,1.67
2022-08-24T12:18:51.562Z,2.05
2022-08-24T12:21:40.701Z,3.67
2022-08-24T12:24:35.119Z,3.20
2022-08-24T12:27:32.150Z,2.58
2022-08-24T12:30:17.872Z,2.88
2022-08-24T12:33:13.032Z,3.60
2022-08-24T12:36:04.396Z,3.72
2022-08-24T12:39:01.182Z,3.63
2022-08-24T12:42:04.618Z,2.70
2022-08-24T12:45:00.620Z,2.35
2022-08-24T12:48:05.190Z,2.65
2022-08-24T12:51:09.566Z,2.35
2022-08-24T12:54:18.830Z,2.88
2022-08-24T12:57:25.238Z,1.98
2022-08-24T13:00:21.668Z,3.72
2022-08-24T13:03:22.547Z,2.83
2022-08-24T13:06:27.615Z,1.73
2022-08-24T13:09:35.491Z,3.17
2022-08-24T13:12:39.311Z,4.10
2022-08-24T13:15:30.700Z,1.52
2022-08-24T13:18:15.869Z,2.15
2022-08-24T13:21:01.459Z,2.20
2022-08-24T13:23:47.184Z,1.58
2022-08-24T13:26:32.615Z,2.22
2022-08-24T13:29:18.921Z,2.20
2022-08-24T13:32:06.800Z,2.67
2022-08-24T13:34:57.637Z,2.25
2022-08-24T13:37:44.140Z,1.23
2022-08-24T13:40:30.616Z,2.63
2022-08-24T13:43:32.576Z,1.42
2022-08-24T13:46:22.878Z,3.92
2022-08-24T13:49:15.093Z,2.20
2022-08-24T13:52:24.968Z,1.13
2022-08-24T13:55:53.915Z,2.08
2022-08-24T13:58:49.834Z,1.48
2022-08-24T14:01:48.313Z,1.33
2022-08-24T14:04:57.769Z,1.80
2022-08-24T14:08:08.017Z,1.25
2022-08-24T14:11:07.990Z,1.00
2022-08-24T14:14:32.251Z,2.47
2022-08-24T14:17:54.123Z,1.13
2022-08-24T14:21:01.769Z,3.15
2022-08-24T14:24:02.896Z,1.95
2022-08-24T14:27:00.251Z,1.27
2022-08-24T14:29:46.957Z,1.17
2022-08-24T14:32:36.132Z,1.83
2022-08-24T14:35:39.596Z,1.08
2022-08-24T14:38:41.928Z,1.75
2022-08-24T14:41:50.783Z,1.65
2022-08-24T14:45:07.459Z,2.63
2022-08-24T14:48:08.186Z,2.05
2022-08-24T14:51:41.931Z,1.52
2022-08-24T14:57:57.901Z,4.97
2022-08-24T15:01:07.772Z,0.55
2022-08-24T15:04:37.351Z,0.60
2022-08-24T15:07:31.179Z,0.75
2022-08-24T15:10:17.073Z,2.05
2022-08-24T15:13:33.984Z,1.98
2022-08-24T15:16:27.302Z,1.75
2022-08-24T15:19:27.174Z,1.58
2022-08-24T15:22:28.706Z,0.43
2022-08-24T15:25:26.402Z,2.15
2022-08-24T15:28:33.020Z,0.73
2022-08-24T15:31:25.973Z,0.60
2022-08-24T15:34:11.556Z,1.15
2022-08-24T15:37:01.703Z,0.40
2022-08-24T15:39:47.598Z,2.30
2022-08-24T15:42:36.033Z,2.30
2022-08-24T15:45:22.585Z,0.55
2022-08-24T15:48:11.621Z,2.15
2022-08-24T15:50:57.590Z,0.50
2022-08-24T15:53:43.164Z,1.77
2022-08-24T15:56:40.543Z,1.08
2022-08-24T15:59:49.668Z,1.05
2022-08-24T16:02:38.713Z,3.72
2022-08-24T16:05:25.351Z,1.80
2022-08-24T16:08:13.904Z,2.78
2022-08-24T16:11:19.666Z,0.60
2022-08-24T16:14:15.412Z,1.10
2022-08-24T16:17:39.930Z,1.42
2022-08-24T16:20:25.357Z,0.82
2022-08-24T16:23:21.280Z,1.92
2022-08-24T16:26:32.798Z,1.63
2022-08-24T16:29:37.009Z,1.48
2022-08-24T16:32:32.359Z,3.53
2022-08-24T16:35:27.055Z,0.80
2022-08-24T16:38:12.531Z,3.08
2022-08-24T16:41:06.003Z,1.83
2022-08-24T16:43:51.861Z,3.72
2022-08-24T16:46:39.307Z,0.98
2022-08-24T16:49:25.366Z,2.75
2022-08-24T16:52:11.643Z,1.55
2022-08-24T16:54:57.656Z,3.97
2022-08-24T16:57:43.933Z,1.40
2022-08-24T17:00:30.142Z,2.25
2022-08-24T17:03:15.362Z,1.55
2022-08-24T17:06:00.765Z,2.33
2022-08-24T17:08:47.597Z,2.67
2022-08-24T17:11:33.230Z,1.63
2022-08-24T17:14:19.625Z,0.70
2022-08-24T17:17:14.815Z,0.93
2022-08-24T17:20:09.766Z,1.35
2022-08-24T17:22:59.803Z,1.90
2022-08-24T17:25:45.460Z,2.08
2022-08-24T17:28:39.216Z,1.30
2022-08-24T17:31:25.500Z,1.17
2022-08-24T17:34:11.696Z,2.20
2022-08-24T17:36:58.158Z,1.85
2022-08-24T17:39:44.325Z,2.15
2022-08-24T17:45:36.371Z,1.17
2022-08-24T17:48:26.206Z,1.20
2022-08-24T17:51:15.842Z,0.50
2022-08-24T17:54:02.901Z,1.58
2022-08-24T17:56:56.718Z,2.35
2022-08-24T17:59:42.440Z,2.00
2022-08-24T18:02:28.799Z,1.73
2022-08-24T18:05:16.130Z,1.40
2022-08-24T18:08:03.116Z,0.80
2022-08-24T18:10:48.925Z,0.80
2022-08-24T18:13:34.487Z,0.77
2022-08-24T18:16:22.762Z,0.80
2022-08-24T18:19:11.937Z,1.73
2022-08-24T18:21:57.386Z,0.70
2022-08-24T18:24:44.635Z,1.40
2022-08-24T18:27:32.812Z,1.23
2022-08-24T18:30:23.071Z,0.88
2022-08-24T18:36:07.938Z,1.60
2022-08-24T18:38:53.919Z,1.60
2022-08-24T18:41:41.849Z,1.83
2022-08-24T18:44:31.652Z,3.03
2022-08-24T18:47:17.937Z,0.70
2022-08-24T18:50:08.335Z,0.95
2022-08-24T18:52:58.943Z,1.25
2022-08-24T18:55:47.282Z,0.80
2022-08-24T18:58:33.373Z,2.15
2022-08-24T19:01:19.422Z,3.13
2022-08-24T19:04:12.047Z,0.70
2022-08-24T19:06:59.637Z,1.35
2022-08-24T19:09:45.133Z,0.80
2022-08-24T19:12:33.776Z,2.42
2022-08-24T19:15:32.302Z,1.15
2022-08-24T19:18:26.143Z,1.23
2022-08-24T19:21:11.610Z,0.75
2022-08-24T19:23:58.526Z,3.50
2022-08-24T19:26:43.887Z,1.08
2022-08-24T19:29:54.588Z,2.47
2022-08-24T19:32:39.492Z,3.47
2022-08-24T19:35:25.188Z,3.45
2022-08-24T19:38:10.998Z,2.40
2022-08-24T19:40:58.150Z,4.25
2022-08-24T19:44:02.785Z,2.80
2022-08-24T19:46:48.395Z,1.73
2022-08-24T19:49:34.158Z,1.85
2022-08-24T19:52:20.412Z,6.60
2022-08-24T19:55:08.671Z,2.72
2022-08-24T19:58:03.317Z,2.88
2022-08-24T20:00:55.383Z,2.47
2022-08-24T20:03:41.331Z,3.60
2022-08-24T20:06:27.634Z,2.85
2022-08-24T20:09:13.658Z,5.20
2022-08-24T20:11:59.175Z,7.68
2022-08-24T20:14:44.922Z,3.35
2022-08-24T20:17:30.251Z,4.32
2022-08-24T20:20:18.039Z,1.40
2022-08-24T20:23:06.392Z,3.42
2022-08-24T20:25:52.214Z,2.17
2022-08-24T20:28:43.489Z,2.65
2022-08-24T20:31:29.673Z,4.78
2022-08-24T20:34:16.176Z,2.97
2022-08-24T20:37:01.862Z,3.85
2022-08-24T20:39:47.485Z,2.03
2022-08-24T20:42:33.103Z,3.22
2022-08-24T20:45:18.807Z,4.30
2022-08-24T20:48:05.589Z,4.28
2022-08-24T20:50:51.120Z,2.33
2022-08-24T20:53:37.037Z,1.90
2022-08-24T20:56:31.071Z,1.80
2022-08-24T20:59:18.928Z,4.68
2022-08-24T21:02:05.099Z,6.70
2022-08-24T21:04:50.694Z,3.85
2022-08-24T21:07:48.006Z,3.10
2022-08-24T21:10:34.893Z,6.38
2022-08-24T21:13:22.106Z,2.50
2022-08-24T21:16:11.152Z,5.95
2022-08-24T21:18:57.084Z,2.80
2022-08-24T21:21:42.938Z,2.88
2022-08-24T21:24:29.318Z,2.92
2022-08-24T21:27:14.998Z,3.35
2022-08-24T21:30:01.132Z,3.65
2022-08-24T21:33:05.680Z,1.73
2022-08-24T21:35:53.862Z,5.55
2022-08-24T21:38:40.759Z,4.88
2022-08-24T21:41:30.847Z,2.92
2022-08-24T21:44:16.967Z,3.53
2022-08-24T21:47:07.457Z,3.13
2022-08-24T21:49:52.928Z,3.33
2022-08-24T21:52:38.813Z,3.28
2022-08-24T21:55:26.710Z,2.20
2022-08-24T21:58:12.106Z,4.00
2022-08-24T22:00:58.993Z,4.00
2022-08-24T22:03:45.224Z,4.43
2022-08-24T22:06:31.996Z,2.78
2022-08-24T22:09:17.978Z,4.40
2022-08-24T22:12:03.590Z,3.92
2022-08-24T22:14:49.660Z,4.05
2022-08-24T22:17:35.847Z,4.05
2022-08-24T22:20:23.035Z,3.25
2022-08-24T22:23:08.919Z,3.50
2022-08-24T22:25:54.524Z,4.65
2022-08-24T22:28:41.446Z,3.33
2022-08-24T22:31:30.027Z,3.35
2022-08-24T22:34:19.577Z,2.05
2022-08-24T22:37:06.404Z,4.03
2022-08-24T22:39:52.012Z,5.15
2022-08-24T22:42:37.894Z,4.18
2022-08-24T22:45:23.819Z,4.38
2022-08-24T22:48:09.611Z,4.90
2022-08-24T22:50:55.528Z,3.92
2022-08-24T22:53:41.280Z,4.95
2022-08-24T22:56:33.283Z,6.28
2022-08-24T22:59:23.463Z,3.63
2022-08-24T23:02:12.893Z,3.35
2022-08-24T23:04:58.597Z,4.65
2022-08-24T23:07:44.074Z,6.88
2022-08-24T23:10:29.309Z,3.70
2022-08-24T23:13:14.856Z,4.40
2022-08-24T23:16:08.807Z,5.97
2022-08-24T23:19:15.255Z,3.47
2022-08-24T23:22:01.123Z,4.43
2022-08-24T23:24:47.990Z,3.42
2022-08-24T23:27:38.531Z,3.92
2022-08-24T23:30:24.253Z,4.28
2022-08-24T23:33:09.770Z,4.60
2022-08-24T23:35:55.239Z,3.60
2022-08-24T23:38:44.483Z,5.95
2022-08-24T23:41:35.045Z,4.70
2022-08-24T23:44:27.635Z,5.25
2022-08-24T23:47:13.226Z,2.97
2022-08-24T23:49:58.785Z,4.85
2022-08-24T23:52:44.784Z,5.57
2022-08-24T23:55:30.557Z,4.75
2022-08-24T23:58:16.117Z,4.63
